Time;durP1;ratioP1;P1;durP2;ratioP2;P2;SDS_P1;SDS_P2;PMS_P1;PMS_P2;Temp;Humidity;BMP_temperature;BMP_pressure;BME280_temperature;BME280_humidity;BME280_pressure;Samples;Min_cycle;Max_cycle;Signal;HPM_P1;HPM_P2
2023/07/13 00:01:55;;;;;;;7.22;2.63;;;20.60;91.10;;;;;;4983705;28;20055;-63
2023/07/13 00:04:25;;;;;;;5.82;2.50;;;20.50;91.10;;;;;;5002220;28;20045;-62
2023/07/13 00:06:51;;;;;;;8.80;2.30;;;20.50;91.10;;;;;;4993727;28;20058;-63
2023/07/13 00:09:18;;;;;;;4.05;1.90;;;20.50;91.10;;;;;;4981485;28;20038;-62
2023/07/13 00:11:44;;;;;;;4.15;1.50;;;20.50;91.10;;;;;;4990906;28;20512;-63
2023/07/13 00:14:11;;;;;;;5.38;2.45;;;20.40;91.10;;;;;;4989624;28;20042;-62
2023/07/13 00:16:38;;;;;;;9.00;2.75;;;20.40;91.00;;;;;;4985209;28;20031;-63
2023/07/13 00:19:05;;;;;;;4.28;1.70;;;20.40;91.00;;;;;;4981218;28;20046;-62
2023/07/13 00:21:31;;;;;;;4.10;2.00;;;20.40;91.00;;;;;;4982208;28;20034;-63
2023/07/13 00:23:57;;;;;;;4.97;1.63;;;20.40;91.00;;;;;;4980664;28;20027;-63
2023/07/13 00:26:23;;;;;;;7.45;2.25;;;20.40;90.90;;;;;;4981822;28;20472;-62
2023/07/13 00:28:49;;;;;;;4.35;1.58;;;20.40;90.90;;;;;;4982861;28;20045;-62
2023/07/13 00:31:15;;;;;;;3.63;1.27;;;20.40;90.90;;;;;;4984104;28;20038;-62
2023/07/13 00:33:41;;;;;;;3.20;1.50;;;20.40;90.80;;;;;;4988987;28;20272;-63
2023/07/13 00:36:08;;;;;;;3.15;1.30;;;20.40;90.80;;;;;;4983035;28;20081;-62
2023/07/13 00:38:34;;;;;;;4.13;1.33;;;;;;;;;;4982581;28;20440;-62
2023/07/13 00:41:00;;;;;;;4.20;1.45;;;;;;;;;;4997754;28;20042;-62
2023/07/13 00:43:28;;;;;;;4.00;1.40;;;20.30;90.80;;;;;;4977279;28;20068;-63
2023/07/13 00:45:54;;;;;;;2.50;1.42;;;;;;;;;;4987625;28;20149;-62
2023/07/13 00:48:21;;;;;;;5.10;1.30;;;;;;;;;;4984059;28;20062;-62
2023/07/13 00:50:50;;;;;;;2.53;1.10;;;;;;;;;;4984580;28;20370;-62
2023/07/13 00:53:17;;;;;;;5.82;1.50;;;;;;;;;;4986445;28;20687;-62
2023/07/13 00:55:44;;;;;;;6.95;1.40;;;;;;;;;;4985043;28;20133;-63
2023/07/13 00:58:10;;;;;;;2.45;0.98;;;;;;;;;;5001337;28;20038;-62
2023/07/13 01:00:37;;;;;;;8.77;1.52;;;;;;;;;;4986432;28;20042;-63
2023/07/13 01:03:04;;;;;;;3.85;1.27;;;20.30;90.90;;;;;;4976429;28;20539;-62
2023/07/13 01:05:31;;;;;;;1.92;1.17;;;;;;;;;;4973798;28;20089;-63
2023/07/13 01:07:58;;;;;;;2.30;1.13;;;;;;;;;;4985456;28;20062;-62
2023/07/13 01:10:24;;;;;;;3.45;1.17;;;;;;;;;;4985463;28;20042;-62
2023/07/13 01:12:50;;;;;;;4.22;1.38;;;;;;;;;;4983251;28;20046;-63
2023/07/13 01:15:43;;;;;;;6.15;1.40;;;;;;;;;;4975117;28;20057;-62
2023/07/13 01:18:11;;;;;;;3.95;1.35;;;;;;;;;;4984398;28;20049;-63
2023/07/13 01:20:37;;;;;;;4.18;1.30;;;;;;;;;;4976699;28;20121;-63
2023/07/13 01:23:08;;;;;;;2.15;0.93;;;;;;;;;;4973287;28;20225;-62
2023/07/13 01:25:35;;;;;;;3.28;1.30;;;;;;;;;;4981437;28;20043;-63
2023/07/13 01:28:02;;;;;;;3.35;1.00;;;20.20;90.90;;;;;;4981043;28;20038;-62
2023/07/13 01:30:29;;;;;;;2.20;0.90;;;20.00;90.60;;;;;;4974567;28;20493;-62
2023/07/13 01:32:54;;;;;;;2.45;1.17;;;20.00;90.70;;;;;;4981481;28;20039;-62
2023/07/13 01:35:20;;;;;;;2.08;1.05;;;19.90;90.70;;;;;;4994628;28;20045;-62
2023/07/13 01:37:46;;;;;;;2.78;0.93;;;19.90;90.80;;;;;;4986996;28;20460;-63
2023/07/13 01:40:12;;;;;;;5.45;1.15;;;19.90;90.80;;;;;;4988889;28;20133;-62
2023/07/13 01:42:39;;;;;;;3.33;1.25;;;;;;;;;;4987447;28;20038;-62
2023/07/13 01:45:05;;;;;;;7.88;1.98;;;;;;;;;;4983811;28;20089;-62
2023/07/13 01:47:32;;;;;;;4.82;1.23;;;;;;;;;;4986783;28;20094;-63
2023/07/13 01:49:58;;;;;;;1.25;0.98;;;;;;;;;;4982600;28;20046;-62
2023/07/13 01:52:24;;;;;;;3.88;1.00;;;;;;;;;;4990631;28;20362;-63
2023/07/13 01:54:50;;;;;;;3.28;1.00;;;;;;;;;;4982637;28;20101;-62
2023/07/13 01:57:17;;;;;;;1.90;1.10;;;;;;;;;;4979245;28;20161;-63
2023/07/13 01:59:43;;;;;;;5.68;1.60;;;;;;;;;;4998431;28;20070;-62
2023/07/13 02:02:09;;;;;;;2.83;1.38;;;;;;;;;;4983920;28;20074;-62
2023/07/13 02:04:35;;;;;;;2.45;1.40;;;;;;;;;;4980664;28;20038;-63
2023/07/13 02:07:01;;;;;;;1.50;1.08;;;;;;;;;;4980939;28;20165;-63
2023/07/13 02:09:27;;;;;;;4.28;1.10;;;;;;;;;;4981670;28;20137;-63
2023/07/13 02:11:54;;;;;;;4.30;1.30;;;;;;;;;;4984931;28;20042;-62
2023/07/13 02:14:20;;;;;;;4.85;1.40;;;;;;;;;;4981824;28;20537;-62
2023/07/13 02:16:48;;;;;;;3.08;1.38;;;;;;;;;;4984133;28;21083;-62
2023/07/13 02:19:14;;;;;;;5.93;2.00;;;;;;;;;;5002621;28;20050;-62
2023/07/13 02:21:40;;;;;;;2.65;1.27;;;;;;;;;;4983004;28;20116;-62
2023/07/13 02:24:07;;;;;;;5.47;1.25;;;;;;;;;;4989487;28;20046;-62
2023/07/13 02:26:33;;;;;;;4.63;1.45;;;;;;;;;;4984810;28;20052;-62
2023/07/13 02:28:59;;;;;;;6.00;1.38;;;;;;;;;;4984364;28;20054;-62
2023/07/13 02:31:25;;;;;;;3.33;1.33;;;;;;;;;;4981529;28;20598;-62
2023/07/13 02:33:51;;;;;;;4.60;1.73;;;;;;;;;;4979650;28;20563;-62
2023/07/13 02:36:18;;;;;;;4.28;1.55;;;;;;;;;;4983191;28;20038;-62
2023/07/13 02:38:45;;;;;;;2.83;1.50;;;;;;;;;;4984683;28;20396;-63
2023/07/13 02:41:12;;;;;;;4.18;1.45;;;;;;;;;;4981999;28;20046;-62
2023/07/13 02:43:38;;;;;;;4.85;2.35;;;;;;;;;;4978726;28;20050;-62
2023/07/13 02:46:07;;;;;;;5.35;1.50;;;;;;;;;;4981344;28;20080;-62
2023/07/13 02:48:36;;;;;;;4.80;1.60;;;;;;;;;;4984378;28;20425;-62
2023/07/13 02:51:03;;;;;;;5.35;2.13;;;;;;;;;;4980663;28;20038;-63
2023/07/13 02:53:29;;;;;;;8.10;3.00;;;;;;;;;;4995886;28;20126;-63
2023/07/13 02:55:55;;;;;;;7.10;1.80;;;;;;;;;;4985809;28;20793;-62
2023/07/13 02:58:21;;;;;;;5.38;2.47;;;;;;;;;;4998466;28;20101;-62
2023/07/13 03:00:49;;;;;;;5.80;2.28;;;;;;;;;;4977523;28;20054;-63
2023/07/13 03:03:16;;;;;;;7.70;2.22;;;;;;;;;;4976736;28;20049;-62
2023/07/13 03:05:44;;;;;;;7.90;2.85;;;;;;;;;;4976165;28;20090;-62
2023/07/13 03:08:11;;;;;;;4.70;2.15;;;;;;;;;;4983466;28;20093;-63
2023/07/13 03:10:37;;;;;;;6.63;2.05;;;;;;;;;;4981641;28;20038;-62
2023/07/13 03:13:03;;;;;;;13.65;2.50;;;;;;;;;;4980562;28;20169;-63
2023/07/13 03:15:30;;;;;;;7.57;2.63;;;;;;;;;;4984517;28;20053;-62
2023/07/13 03:17:56;;;;;;;8.00;2.92;;;;;;;;;;4982498;28;20046;-63
2023/07/13 03:20:22;;;;;;;8.57;2.42;;;;;;;;;;4977411;28;20473;-62
2023/07/13 03:22:48;;;;;;;4.90;2.33;;;;;;;;;;4984241;28;20035;-62
2023/07/13 03:25:14;;;;;;;6.45;2.30;;;;;;;;;;4987191;28;20054;-62
2023/07/13 03:27:40;;;;;;;5.45;2.92;;;;;;;;;;4988163;28;20397;-62
2023/07/13 03:30:07;;;;;;;15.50;3.17;;;;;;;;;;4983539;28;20373;-63
2023/07/13 03:32:33;;;;;;;9.77;2.80;;;;;;;;;;4985366;28;20436;-62
2023/07/13 03:34:59;;;;;;;9.68;2.60;;;;;;;;;;4984775;28;20493;-62
2023/07/13 03:37:25;;;;;;;13.98;3.22;;;;;;;;;;4982971;28;20038;-62
2023/07/13 03:39:51;;;;;;;8.45;2.60;;;;;;;;;;4984486;28;20117;-62
2023/07/13 03:42:18;;;;;;;8.13;2.15;;;;;;;;;;4981327;28;20050;-62
2023/07/13 03:44:52;;;;;;;10.30;3.13;;;;;;;;;;4988586;28;20130;-62
2023/07/13 03:47:18;;;;;;;8.55;3.20;;;;;;;;;;4988228;28;20047;-63
2023/07/13 03:49:46;;;;;;;10.93;3.83;;;;;;;;;;4988480;28;20054;-62
2023/07/13 03:52:12;;;;;;;8.45;2.42;;;;;;;;;;4988550;28;20042;-63
2023/07/13 03:54:38;;;;;;;8.18;2.80;;;;;;;;;;4987450;28;20074;-63
2023/07/13 03:57:04;;;;;;;5.55;2.55;;;;;;;;;;4986121;28;20046;-63
2023/07/13 03:59:30;;;;;;;8.63;3.28;;;;;;;;;;4985868;28;20106;-63
2023/07/13 04:01:57;;;;;;;8.38;2.63;;;;;;;;;;4989096;28;20042;-63
2023/07/13 04:04:23;;;;;;;8.50;2.58;;;;;;;;;;4985658;28;20039;-62
2023/07/13 04:06:49;;;;;;;6.10;2.65;;;;;;;;;;4982311;28;20034;-62
2023/07/13 04:09:15;;;;;;;6.60;2.67;;;;;;;;;;4985839;28;20654;-63
2023/07/13 04:11:41;;;;;;;7.43;2.75;;;;;;;;;;4990409;28;20077;-62
2023/07/13 04:14:07;;;;;;;5.10;2.70;;;;;;;;;;4984829;28;20035;-62
2023/07/13 04:16:33;;;;;;;5.82;2.42;;;;;;;;;;4984402;28;20038;-62
2023/07/13 04:18:59;;;;;;;6.70;2.47;;;;;;;;;;4983329;28;20122;-62
2023/07/13 04:21:27;;;;;;;4.25;1.90;;;;;;;;;;4978820;28;20121;-63
2023/07/13 04:23:53;;;;;;;5.82;2.60;;;;;;;;;;4973032;28;22400;-62
2023/07/13 04:26:23;;;;;;;10.20;3.28;;;;;;;;;;4982336;28;20469;-62
2023/07/13 04:28:50;;;;;;;6.38;2.53;;;;;;;;;;4984111;28;20070;-62
2023/07/13 04:31:16;;;;;;;9.23;2.30;;;;;;;;;;4983226;28;20044;-62
2023/07/13 04:33:42;;;;;;;6.28;2.33;;;;;;;;;;4981700;28;20038;-63
2023/07/13 04:36:09;;;;;;;4.70;2.63;;;;;;;;;;4976581;28;20035;-63
2023/07/13 04:38:36;;;;;;;6.97;3.47;;;;;;;;;;4976043;28;20129;-62
2023/07/13 04:41:04;;;;;;;5.97;2.30;;;;;;;;;;4975900;28;20096;-62
2023/07/13 04:43:30;;;;;;;6.70;2.33;;;;;;;;;;4986432;28;20054;-62
2023/07/13 04:45:57;;;;;;;6.97;2.30;;;;;;;;;;4976842;28;20630;-62
2023/07/13 04:48:23;;;;;;;4.95;2.22;;;;;;;;;;4985691;28;20122;-62
2023/07/13 04:50:55;;;;;;;7.57;2.88;;;;;;;;;;4994220;28;20049;-62
2023/07/13 04:53:21;;;;;;;9.57;2.75;;;;;;;;;;4979271;28;20108;-62
2023/07/13 04:55:47;;;;;;;6.90;2.38;;;;;;;;;;4966683;28;20061;-62
2023/07/13 04:58:13;;;;;;;5.75;2.20;;;;;;;;;;4980817;28;20039;-63
2023/07/13 05:00:39;;;;;;;9.32;3.17;;;;;;;;;;4987777;28;20046;-62
2023/07/13 05:03:06;;;;;;;6.15;2.67;;;;;;;;;;4986611;28;20077;-63
2023/07/13 05:05:32;;;;;;;7.40;2.08;;;;;;;;;;4986353;28;20130;-62
2023/07/13 05:07:58;;;;;;;7.93;3.08;;;;;;;;;;4984799;28;20038;-62
2023/07/13 05:10:24;;;;;;;6.15;2.28;;;;;;;;;;4968021;28;20489;-62
2023/07/13 05:12:51;;;;;;;6.53;3.03;;;;;;;;;;4964643;28;20042;-61
2023/07/13 05:15:21;;;;;;;9.80;3.30;;;;;;;;;;4978610;28;20137;-62
2023/07/13 05:17:50;;;;;;;7.65;3.05;;;;;;;;;;4985718;28;20150;-62
2023/07/13 05:20:17;;;;;;;3.55;1.92;;;;;;;;;;4976090;28;20054;-62
2023/07/13 05:22:43;;;;;;;7.05;2.38;;;;;;;;;;4978654;28;20069;-62
2023/07/13 05:25:10;;;;;;;9.45;2.80;;;;;;;;;;4980869;28;20042;-62
2023/07/13 05:27:36;;;;;;;6.53;2.50;;;;;;;;;;4996208;28;20057;-62
2023/07/13 05:30:03;;;;;;;8.23;2.63;;;;;;;;;;4979525;28;20128;-61
2023/07/13 05:32:29;;;;;;;6.18;2.92;;;;;;;;;;4978520;28;20046;-62
2023/07/13 05:34:55;;;;;;;6.75;2.28;;;;;;;;;;4984111;28;20056;-62
2023/07/13 05:37:21;;;;;;;6.15;2.40;;;;;;;;;;4980624;28;20054;-62
2023/07/13 05:39:48;;;;;;;5.88;2.40;;;;;;;;;;4978118;28;20074;-62
2023/07/13 05:42:14;;;;;;;3.83;2.20;;;;;;;;;;4977335;28;20130;-62
2023/07/13 05:44:40;;;;;;;6.05;2.42;;;;;;;;;;4976960;28;20427;-62
2023/07/13 05:47:06;;;;;;;6.22;2.20;;;;;;;;;;4978345;28;20717;-62
2023/07/13 05:49:32;;;;;;;5.00;2.58;;;;;;;;;;4978706;28;20065;-62
2023/07/13 05:51:58;;;;;;;5.70;2.70;;;;;;;;;;4972576;28;20049;-62
2023/07/13 05:54:25;;;;;;;4.70;2.35;;;;;;;;;;4980213;28;20049;-62
2023/07/13 05:56:51;;;;;;;6.00;2.47;;;;;;;;;;4993778;28;20046;-62
2023/07/13 05:59:18;;;;;;;3.95;2.35;;;;;;;;;;4972889;28;20547;-62
2023/07/13 06:01:44;;;;;;;6.20;2.40;;;;;;;;;;4979371;28;20053;-62
2023/07/13 06:04:10;;;;;;;7.97;2.90;;;;;;;;;;4981894;28;20546;-62
2023/07/13 06:06:36;;;;;;;6.90;2.67;;;;;;;;;;4981138;28;20046;-61
2023/07/13 06:09:03;;;;;;;3.45;1.70;;;;;;;;;;4982013;28;20044;-62
2023/07/13 06:11:29;;;;;;;3.95;1.90;;;;;;;;;;4982115;28;20089;-62
2023/07/13 06:13:56;;;;;;;6.55;1.98;;;;;;;;;;4978805;28;20038;-62
2023/07/13 06:16:23;;;;;;;5.13;2.15;;;;;;;;;;4975947;28;20139;-62
2023/07/13 06:18:49;;;;;;;3.70;1.77;;;;;;;;;;4991810;28;20049;-62
2023/07/13 06:21:17;;;;;;;5.70;2.40;;;;;;;;;;4976145;28;20085;-62
2023/07/13 06:23:43;;;;;;;6.60;2.60;;;;;;;;;;4973856;28;20120;-62
2023/07/13 06:26:10;;;;;;;7.65;1.90;;;;;;;;;;4975637;28;20054;-62
2023/07/13 06:28:37;;;;;;;4.05;1.83;;;;;;;;;;4982510;28;20148;-62
2023/07/13 06:31:05;;;;;;;5.70;1.88;;;;;;;;;;4977529;28;20050;-62
2023/07/13 06:33:31;;;;;;;3.95;1.85;;;;;;;;;;4981543;28;20504;-63
2023/07/13 06:35:58;;;;;;;4.43;2.42;;;;;;;;;;4974965;28;20042;-62
2023/07/13 06:38:24;;;;;;;4.13;1.77;;;;;;;;;;4964987;28;20096;-62
2023/07/13 06:40:50;;;;;;;5.93;2.88;;;;;;;;;;4981041;28;20638;-62
2023/07/13 06:43:16;;;;;;;6.18;2.08;;;;;;;;;;4980103;28;20624;-62
2023/07/13 06:45:47;;;;;;;6.10;1.55;;;;;;;;;;4975670;28;20034;-62
2023/07/13 06:48:13;;;;;;;5.15;1.85;;;;;;;;;;4984779;28;20042;-62
2023/07/13 06:50:39;;;;;;;7.57;2.20;;;;;;;;;;4979394;28;20073;-62
2023/07/13 06:53:05;;;;;;;4.97;2.10;;;;;;;;;;4978615;28;20050;-62
2023/07/13 06:55:31;;;;;;;4.85;1.70;;;;;;;;;;4980273;28;20097;-61
2023/07/13 06:57:58;;;;;;;4.55;1.48;;;;;;;;;;4990628;28;20035;-62
2023/07/13 07:00:24;;;;;;;4.45;1.48;;;;;;;;;;4982808;28;20043;-62
2023/07/13 07:02:50;;;;;;;3.08;1.52;;;;;;;;;;4984995;28;20142;-62
2023/07/13 07:05:16;;;;;;;3.70;1.35;;;;;;;;;;4986802;28;20050;-62
2023/07/13 07:07:42;;;;;;;2.83;1.63;;;;;;;;;;4983841;28;20039;-62
2023/07/13 07:10:09;;;;;;;5.05;1.63;;;;;;;;;;4981398;28;20116;-61
2023/07/13 07:12:35;;;;;;;3.03;1.70;;;;;;;;;;4980321;28;20061;-62
2023/07/13 07:15:01;;;;;;;4.05;1.35;;;;;;;;;;4977455;28;20620;-62
2023/07/13 07:17:27;;;;;;;4.20;1.90;;;;;;;;;;4982414;28;20054;-62
2023/07/13 07:19:53;;;;;;;3.33;1.30;;;;;;;;;;4980810;28;20085;-62
2023/07/13 07:22:20;;;;;;;5.80;1.80;;;;;;;;;;4978389;28;20061;-61
2023/07/13 07:24:46;;;;;;;4.22;2.13;;;;;;;;;;4968899;28;20034;-62
2023/07/13 07:27:12;;;;;;;3.58;1.27;;;;;;;;;;4983576;28;20055;-62
2023/07/13 07:29:39;;;;;;;5.22;1.73;;;;;;;;;;4985224;28;20047;-62
2023/07/13 07:32:05;;;;;;;8.52;1.80;;;;;;;;;;4982034;28;20128;-62
2023/07/13 07:34:31;;;;;;;3.17;1.75;;;;;;;;;;4990797;28;20053;-62
2023/07/13 07:37:00;;;;;;;5.60;1.48;;;;;;;;;;4986406;28;20538;-61
2023/07/13 07:39:27;;;;;;;3.17;1.20;;;;;;;;;;4987321;28;20127;-62
2023/07/13 07:41:53;;;;;;;5.63;1.95;;;;;;;;;;4980420;28;20221;-62
2023/07/13 07:44:19;;;;;;;2.35;1.50;;;;;;;;;;4987759;28;20045;-62
2023/07/13 07:46:45;;;;;;;2.50;1.50;;;19.90;90.80;;;;;;4979787;28;20389;-61
2023/07/13 07:49:11;;;;;;;4.80;1.70;;;20.60;92.60;;;;;;4987391;28;20041;-62
2023/07/13 07:51:37;;;;;;;3.63;1.55;;;20.50;92.40;;;;;;4984632;28;20080;-62
2023/07/13 07:54:04;;;;;;;3.03;1.67;;;20.50;92.40;;;;;;5003282;28;20062;-62
2023/07/13 07:56:30;;;;;;;3.22;1.50;;;20.50;92.40;;;;;;4981078;28;20038;-61
2023/07/13 07:58:56;;;;;;;4.15;1.58;;;20.50;92.40;;;;;;4982995;28;20048;-62
2023/07/13 08:01:22;;;;;;;3.03;1.30;;;20.60;92.40;;;;;;4978886;28;20126;-62
2023/07/13 08:03:48;;;;;;;4.22;1.50;;;20.60;92.40;;;;;;4983226;28;20039;-62
2023/07/13 08:06:14;;;;;;;3.67;1.40;;;20.60;92.50;;;;;;4980083;28;20052;-62
2023/07/13 08:08:40;;;;;;;4.45;1.98;;;20.60;92.50;;;;;;4983933;28;20396;-61
2023/07/13 08:11:08;;;;;;;2.13;1.27;;;20.70;92.80;;;;;;4979483;28;20401;-62
2023/07/13 08:13:34;;;;;;;3.85;1.65;;;20.70;92.60;;;;;;4984460;28;20085;-62
2023/07/13 08:16:00;;;;;;;2.53;1.30;;;20.80;92.60;;;;;;4978011;28;20081;-61
2023/07/13 08:18:28;;;;;;;5.70;1.85;;;;;;;;;;4981312;28;20042;-62
2023/07/13 08:20:56;;;;;;;8.07;1.45;;;;;;;;;;4987224;28;20097;-62
2023/07/13 08:23:23;;;;;;;3.80;1.80;;;;;;;;;;4979638;28;20046;-62
2023/07/13 08:25:53;;;;;;;3.17;1.50;;;;;;;;;;4979323;28;20061;-62
2023/07/13 08:28:20;;;;;;;3.45;1.65;;;;;;;;;;4992305;28;20041;-62
2023/07/13 08:30:49;;;;;;;7.38;2.00;;;;;;;;;;4989180;28;20206;-62
2023/07/13 08:33:19;;;;;;;4.53;1.58;;;;;;;;;;4980188;28;20454;-61
2023/07/13 08:35:49;;;;;;;3.33;2.10;;;;;;;;;;4986264;28;20038;-61
2023/07/13 08:38:16;;;;;;;6.20;2.03;;;;;;;;;;4981548;28;20130;-62
2023/07/13 08:40:43;;;;;;;6.35;1.98;;;;;;;;;;4984876;28;20042;-62
2023/07/13 08:43:20;;;;;;;3.08;2.00;;;;;;;;;;4986083;28;20497;-62
2023/07/13 08:45:49;;;;;;;2.70;1.58;;;;;;;;;;4994247;28;20058;-62
2023/07/13 08:48:27;;;;;;;3.72;1.70;;;;;;;;;;4978989;28;20042;-62
2023/07/13 08:51:11;;;;;;;3.85;1.50;;;;;;;;;;4982417;28;20117;-63
2023/07/13 08:53:41;;;;;;;4.85;1.85;;;;;;;;;;4978207;28;20042;-62
2023/07/13 08:56:11;;;;;;;2.75;1.15;;;;;;;;;;4979399;28;20046;-62
2023/07/13 08:58:38;;;;;;;4.05;1.80;;;;;;;;;;4982802;28;20126;-61
2023/07/13 09:01:10;;;;;;;3.58;1.90;;;;;;;;;;4982860;28;20038;-62
2023/07/13 09:03:41;;;;;;;3.22;1.77;;;;;;;;;;4986768;28;20054;-62
2023/07/13 09:06:09;;;;;;;3.92;1.70;;;;;;;;;;4980565;28;20503;-62
2023/07/13 09:08:47;;;;;;;2.75;1.55;;;;;;;;;;4982122;28;20034;-62
2023/07/13 09:11:26;;;;;;;3.33;1.35;;;;;;;;;;4981533;28;20061;-62
2023/07/13 09:14:11;;;;;;;2.85;1.27;;;;;;;;;;4976729;28;20038;-62
2023/07/13 09:16:38;;;;;;;3.05;1.33;;;;;;;;;;4983170;28;20406;-62
2023/07/13 09:19:06;;;;;;;2.10;1.50;;;;;;;;;;4978036;28;20050;-62
2023/07/13 09:21:34;;;;;;;3.47;1.60;;;;;;;;;;4976803;28;20154;-62
2023/07/13 09:24:02;;;;;;;4.10;1.30;;;;;;;;;;4971676;28;20395;-62
2023/07/13 09:26:30;;;;;;;3.50;1.58;;;;;;;;;;4981650;28;20166;-62
2023/07/13 09:29:19;;;;;;;6.38;1.83;;;;;;;;;;4980058;28;20046;-62
2023/07/13 09:31:49;;;;;;;1.70;1.35;;;;;;;;;;4983520;28;20068;-62
2023/07/13 09:34:15;;;;;;;3.60;1.23;;;;;;;;;;4983614;28;20046;-61
2023/07/13 09:36:41;;;;;;;2.63;1.65;;;;;;;;;;4982282;28;20129;-62
2023/07/13 09:39:10;;;;;;;3.50;1.60;;;;;;;;;;4979876;28;20049;-62
2023/07/13 09:41:55;;;;;;;2.97;1.30;;;;;;;;;;4982391;28;20049;-62
2023/07/13 09:44:32;;;;;;;3.05;1.30;;;;;;;;;;4981004;28;20496;-62
2023/07/13 09:46:58;;;;;;;2.78;1.30;;;;;;;;;;4981213;28;20136;-62
2023/07/13 09:49:26;;;;;;;3.10;1.02;;;;;;;;;;4980185;28;20043;-62
2023/07/13 09:51:59;;;;;;;4.15;1.38;;;;;;;;;;4972379;28;20043;-62
2023/07/13 09:54:26;;;;;;;3.05;1.75;;;;;;;;;;4982243;28;20048;-62
2023/07/13 09:56:59;;;;;;;2.30;1.10;;;;;;;;;;4979637;28;20043;-62
2023/07/13 09:59:29;;;;;;;1.23;1.00;;;;;;;;;;4975569;28;20096;-62
2023/07/13 10:01:55;;;;;;;2.47;0.93;;;;;;;;;;4979276;28;20154;-62
2023/07/13 10:04:27;;;;;;;3.88;1.45;;;;;;;;;;4985234;28;20039;-62
2023/07/13 10:07:05;;;;;;;2.50;1.03;;;;;;;;;;4981586;28;20401;-62
2023/07/13 10:09:32;;;;;;;2.10;1.05;;;;;;;;;;4974686;28;20743;-62
2023/07/13 10:11:58;;;;;;;4.55;1.40;;;;;;;;;;4985229;28;20042;-62
2023/07/13 10:14:25;;;;;;;2.65;1.25;;;;;;;;;;4978824;28;20083;-62
2023/07/13 10:16:55;;;;;;;2.03;1.13;;;;;;;;;;4974941;28;20055;-62
2023/07/13 10:19:27;;;;;;;3.65;1.42;;;;;;;;;;4977722;28;20034;-62
2023/07/13 10:21:54;;;;;;;2.50;1.10;;;;;;;;;;4985290;28;20035;-61
2023/07/13 10:24:22;;;;;;;2.88;1.23;;;;;;;;;;4977855;28;20690;-62
2023/07/13 10:26:55;;;;;;;3.35;0.98;;;;;;;;;;4976505;28;20504;-62
2023/07/13 10:29:21;;;;;;;1.70;1.00;;;;;;;;;;4982520;28;20141;-62
2023/07/13 10:31:48;;;;;;;1.90;1.25;;;;;;;;;;4986961;28;20038;-62
2023/07/13 10:34:14;;;;;;;8.30;1.70;;;;;;;;;;4991092;28;20047;-62
2023/07/13 10:36:45;;;;;;;4.97;1.90;;;;;;;;;;4985454;28;20138;-61
2023/07/13 10:39:30;;;;;;;6.18;1.98;;;;;;;;;;5002989;28;20058;-61
2023/07/13 10:42:06;;;;;;;3.03;1.42;;;;;;;;;;4985237;28;20070;-62
2023/07/13 10:44:33;;;;;;;3.95;1.80;;;;;;;;;;4985829;28;20050;-61
2023/07/13 10:47:01;;;;;;;3.08;1.58;;;;;;;;;;4990100;28;20074;-62
2023/07/13 10:49:29;;;;;;;2.63;1.48;;;;;;;;;;4985604;28;20050;-62
2023/07/13 10:51:55;;;;;;;4.00;1.80;;;;;;;;;;4983895;28;20034;-61
2023/07/13 10:54:26;;;;;;;4.70;1.42;;;;;;;;;;4982320;28;20145;-62
2023/07/13 10:57:13;;;;;;;3.70;1.25;;;;;;;;;;4982932;28;20053;-62
2023/07/13 10:59:41;;;;;;;2.00;1.20;;;;;;;;;;4989336;28;20126;-61
2023/07/13 11:02:07;;;;;;;4.90;2.03;;;;;;;;;;4985799;28;20038;-61
2023/07/13 11:04:44;;;;;;;2.70;1.40;;;;;;;;;;4981961;28;20392;-61
2023/07/13 11:07:12;;;;;;;8.02;2.20;;;;;;;;;;4999141;28;20084;-61
2023/07/13 11:09:47;;;;;;;2.10;1.30;;;;;;;;;;4986464;28;20089;-62
2023/07/13 11:12:17;;;;;;;2.33;1.30;;;;;;;;;;4979428;28;20034;-62
2023/07/13 11:14:44;;;;;;;5.68;1.33;;;;;;;;;;4982037;28;20129;-62
2023/07/13 11:17:43;;;;;;;5.00;1.70;;;;;;;;;;4987554;28;20683;-62
2023/07/13 11:20:12;;;;;;;2.88;1.20;;;;;;;;;;4994331;28;20065;-62
2023/07/13 11:22:47;;;;;;;3.80;1.60;;;;;;;;;;4980989;28;20038;-62
2023/07/13 11:25:19;;;;;;;4.80;1.48;;;;;;;;;;4988193;28;20104;-62
2023/07/13 11:27:53;;;;;;;8.63;1.92;;;;;;;;;;4994427;28;20049;-62
2023/07/13 11:30:25;;;;;;;2.72;1.20;;;;;;;;;;4979575;28;20122;-62
2023/07/13 11:32:53;;;;;;;3.22;1.60;;;;;;;;;;4978280;28;20672;-62
2023/07/13 11:35:27;;;;;;;2.03;1.40;;;;;;;;;;4986562;28;20061;-62
2023/07/13 11:37:53;;;;;;;5.60;1.58;;;;;;;;;;4985448;28;20092;-62
2023/07/13 11:40:22;;;;;;;3.88;2.05;;;;;;;;;;4983774;28;20136;-62
2023/07/13 11:42:48;;;;;;;4.82;1.60;;;;;;;;;;4975601;28;20047;-62
2023/07/13 11:45:25;;;;;;;3.13;1.60;;;;;;;;;;4976185;28;20043;-62
2023/07/13 11:47:51;;;;;;;5.68;2.10;;;;;;;;;;4985617;28;20037;-62
2023/07/13 11:50:21;;;;;;;4.32;1.70;;;;;;;;;;4975153;28;20034;-62
2023/07/13 11:52:48;;;;;;;3.33;1.88;;;;;;;;;;4984725;28;20051;-62
2023/07/13 11:55:16;;;;;;;4.13;1.55;;;;;;;;;;4986530;28;20188;-61
2023/07/13 11:57:46;;;;;;;3.28;1.25;;;;;;;;;;4976821;28;20370;-61
2023/07/13 12:00:14;;;;;;;4.70;1.60;;;;;;;;;;4974054;28;20050;-61
2023/07/13 12:02:46;;;;;;;2.92;1.33;;;;;;;;;;4985963;28;20042;-61
2023/07/13 12:05:14;;;;;;;3.08;1.60;;;;;;;;;;4984817;28;20081;-61
2023/07/13 12:07:40;;;;;;;5.10;1.50;;;;;;;;;;4982426;28;20034;-61
2023/07/13 12:10:10;;;;;;;4.07;1.63;;;;;;;;;;4988906;28;20531;-62
2023/07/13 12:12:39;;;;;;;5.35;1.77;;;;;;;;;;4990026;28;20535;-61
2023/07/13 12:15:06;;;;;;;4.72;1.30;;;;;;;;;;4977026;28;20038;-61
2023/07/13 12:17:35;;;;;;;8.18;1.73;;;;;;;;;;4974295;28;20105;-62
2023/07/13 12:20:01;;;;;;;6.93;1.25;;;;;;;;;;4981890;28;20480;-62
2023/07/13 12:22:28;;;;;;;3.25;1.42;;;;;;;;;;4983891;28;20059;-62
2023/07/13 12:24:54;;;;;;;3.70;1.90;;;;;;;;;;4987599;28;20046;-62
2023/07/13 12:27:28;;;;;;;4.13;1.60;;;;;;;;;;4977140;28;20522;-62
2023/07/13 12:30:05;;;;;;;3.03;1.50;;;;;;;;;;4988015;28;20495;-61
2023/07/13 12:32:31;;;;;;;4.15;1.75;;;;;;;;;;4985060;28;20042;-62
2023/07/13 12:35:18;;;;;;;7.65;2.95;;;;;;;;;;4979961;28;20046;-62
2023/07/13 12:37:46;;;;;;;4.72;1.92;;;;;;;;;;4982170;28;20042;-62
2023/07/13 12:40:18;;;;;;;2.88;1.80;;;;;;;;;;4985934;28;20148;-62
2023/07/13 12:42:45;;;;;;;;;;;;;;;;;;4985623;28;20049;-62
2023/07/13 12:45:17;;;;;;;3.08;1.58;;;;;;;;;;4981845;28;19940;-62
2023/07/13 12:47:45;;;;;;;3.40;2.03;;;;;;;;;;4979495;28;20034;-62
2023/07/13 12:50:15;;;;;;;4.93;2.72;;;;;;;;;;4986398;28;20128;-62
2023/07/13 12:52:43;;;;;;;7.60;2.00;;;;;;;;;;4985906;28;20129;-62
2023/07/13 12:55:18;;;;;;;6.82;2.53;;;;;;;;;;4978434;28;20093;-62
2023/07/13 12:57:51;;;;;;;7.88;2.30;;;;;;;;;;4984931;28;20049;-62
2023/07/13 13:00:38;;;;;;;4.65;1.90;;;;;;;;;;4981330;28;20190;-62
2023/07/13 13:03:22;;;;;;;5.40;1.98;;;;;;;;;;4984138;28;20113;-62
2023/07/13 13:05:49;;;;;;;3.60;1.95;;;;;;;;;;4984891;28;20552;-62
2023/07/13 13:08:15;;;;;;;8.13;1.80;;;;;;;;;;4983607;28;20039;-61
2023/07/13 13:10:41;;;;;;;3.90;1.63;;;;;;;;;;4982765;28;20441;-62
2023/07/13 13:13:08;;;;;;;6.32;2.35;;;;;;;;;;4995488;28;20083;-62
2023/07/13 13:15:35;;;;;;;3.42;1.90;;;;;;;;;;4990026;28;20611;-62
2023/07/13 13:18:02;;;;;;;8.68;2.00;;;;;;;;;;4978746;28;20078;-62
2023/07/13 13:20:28;;;;;;;6.75;2.67;;;;;;;;;;4983670;28;20046;-62
2023/07/13 13:22:55;;;;;;;5.82;1.95;;;;;;;;;;4982221;28;20062;-62
2023/07/13 13:25:22;;;;;;;6.97;2.63;;;;;;;;;;4977598;28;20149;-63
2023/07/13 13:27:49;;;;;;;7.95;3.05;;;;;;;;;;5001632;28;20054;-63
2023/07/13 13:30:16;;;;;;;4.90;2.30;;;;;;;;;;4981601;28;20043;-63
2023/07/13 13:32:43;;;;;;;9.13;3.03;;;;;;;;;;4992194;28;20042;-63
2023/07/13 13:35:15;;;;;;;7.10;2.33;;;;;;;;;;4986287;28;20127;-63
2023/07/13 13:37:42;;;;;;;7.38;2.28;;;;;;;;;;4983229;28;20049;-63
2023/07/13 13:40:30;;;;;;;8.60;2.85;;;;;;;;;;5000203;28;20042;-62
2023/07/13 13:42:57;;;;;;;4.78;2.25;;;;;;;;;;4982314;28;20461;-63
2023/07/13 13:45:24;;;;;;;4.00;2.10;;;;;;;;;;4984765;28;20081;-62
2023/07/13 13:47:50;;;;;;;5.20;2.33;;;;;;;;;;4985622;28;20077;-63
2023/07/13 13:50:16;;;;;;;9.15;2.45;;;;;;;;;;4988334;28;20126;-62
2023/07/13 13:52:43;;;;;;;4.43;2.22;;;;;;;;;;4987755;28;20045;-63
2023/07/13 13:55:13;;;;;;;4.55;1.98;;;;;;;;;;4985057;28;20049;-63
2023/07/13 13:57:39;;;;;;;4.75;2.33;;;;;;;;;;4982273;28;20050;-62
2023/07/13 14:00:06;;;;;;;4.20;1.70;;;;;;;;;;4979313;28;20121;-62
2023/07/13 14:02:32;;;;;;;4.85;2.35;;;;;;;;;;4985735;28;20085;-62
2023/07/13 14:05:00;;;;;;;8.60;2.10;;;;;;;;;;4984279;28;20066;-63
2023/07/13 14:07:26;;;;;;;2.95;1.58;;;;;;;;;;4983794;28;20043;-63
2023/07/13 14:09:53;;;;;;;3.35;2.22;;;;;;;;;;4976390;28;20030;-63
2023/07/13 14:12:19;;;;;;;5.78;1.95;;;;;;;;;;4989014;28;20089;-63
2023/07/13 14:14:46;;;;;;;7.97;2.70;;;;;;;;;;4982340;28;20038;-63
2023/07/13 14:17:30;;;;;;;4.13;1.98;;;;;;;;;;4983402;28;20056;-63
2023/07/13 14:19:57;;;;;;;5.63;2.13;;;;;;;;;;4975439;28;20410;-63
2023/07/13 14:22:24;;;;;;;3.95;1.90;;;;;;;;;;4980932;28;20047;-63
2023/07/13 14:24:51;;;;;;;4.13;2.45;;;;;;;;;;4984522;28;20137;-63
2023/07/13 14:27:18;;;;;;;5.65;2.45;;;;;;;;;;4981035;28;20062;-62
2023/07/13 14:29:44;;;;;;;5.45;1.80;;;;;;;;;;4985418;28;20081;-62
2023/07/13 14:32:13;;;;;;;5.75;2.40;;;;;;;;;;4983481;28;20096;-62
2023/07/13 14:34:39;;;;;;;4.57;2.22;;;;;;;;;;4979654;28;20037;-63
2023/07/13 14:37:06;;;;;;;4.82;1.95;;;;;;;;;;4983892;28;20035;-62